Goddard, Kansas
Current Conditions -  °F | °C
As of 12:53 PM on Friday 31 Oct 2014 (Local Time) from KICT Reporting Station
Clear Clear  
Wind Chill: 40°   Ceiling: Unl
Heat Index: 46°   Visibility: 10mi
Dew Point: 21°   Wind: 13mph
Humidity: 37%   Direction: 20°NNE
Pressure: 30.49"   Gusts: 22mph
Location:  37.66°N, 97.58°W
Report Text: KICT 311753Z 02011G19KT 10SM CLR 08/M06 A3049 RMK AO2 SLP327 T00781061 10083 20033 58002
Loading
Personal Weather Stations






























Interactive Weather Map
Tropical Storm Tracking
New forecast layout! Learn more

10-Day Weather Forecast

Advertisements
Track Severe Weather on mobile